sensor_id;sensor_type;location;lat;lon;timestamp;temperature;humidity
76293;DHT22;67256;51.154;4.164;2023-02-25T00:00:08;6.30;75.20
76293;DHT22;67256;51.154;4.164;2023-02-25T00:02:46;6.10;75.70
76293;DHT22;67256;51.154;4.164;2023-02-25T00:05:13;6.30;74.80
76293;DHT22;67256;51.154;4.164;2023-02-25T00:07:39;6.30;74.60
76293;DHT22;67256;51.154;4.164;2023-02-25T00:10:06;6.40;74.50
76293;DHT22;67256;51.154;4.164;2023-02-25T00:12:32;6.50;73.90
76293;DHT22;67256;51.154;4.164;2023-02-25T00:14:58;6.70;73.20
76293;DHT22;67256;51.154;4.164;2023-02-25T00:17:24;6.60;73.30
76293;DHT22;67256;51.154;4.164;2023-02-25T00:19:50;6.70;73.30
76293;DHT22;67256;51.154;4.164;2023-02-25T00:22:16;6.80;72.40
76293;DHT22;67256;51.154;4.164;2023-02-25T00:24:42;7.00;72.00
76293;DHT22;67256;51.154;4.164;2023-02-25T00:27:07;7.10;71.40
76293;DHT22;67256;51.154;4.164;2023-02-25T00:29:33;7.10;71.10
76293;DHT22;67256;51.154;4.164;2023-02-25T00:31:59;7.10;70.90
76293;DHT22;67256;51.154;4.164;2023-02-25T00:34:25;7.20;70.60
76293;DHT22;67256;51.154;4.164;2023-02-25T00:36:51;7.00;70.50
76293;DHT22;67256;51.154;4.164;2023-02-25T00:39:16;6.70;71.40
76293;DHT22;67256;51.154;4.164;2023-02-25T00:41:43;6.50;72.40
76293;DHT22;67256;51.154;4.164;2023-02-25T00:44:09;6.70;71.70
76293;DHT22;67256;51.154;4.164;2023-02-25T00:46:35;6.60;71.80
76293;DHT22;67256;51.154;4.164;2023-02-25T00:49:01;6.70;71.40
76293;DHT22;67256;51.154;4.164;2023-02-25T00:51:29;6.60;71.90
76293;DHT22;67256;51.154;4.164;2023-02-25T00:53:56;6.40;72.30
76293;DHT22;67256;51.154;4.164;2023-02-25T00:56:24;6.30;73.00
76293;DHT22;67256;51.154;4.164;2023-02-25T00:58:51;6.20;73.90
76293;DHT22;67256;51.154;4.164;2023-02-25T01:01:26;6.20;73.30
76293;DHT22;67256;51.154;4.164;2023-02-25T01:03:54;6.30;73.00
76293;DHT22;67256;51.154;4.164;2023-02-25T01:06:22;6.40;73.10
76293;DHT22;67256;51.154;4.164;2023-02-25T01:08:48;6.50;72.70
76293;DHT22;67256;51.154;4.164;2023-02-25T01:11:20;6.60;72.30
76293;DHT22;67256;51.154;4.164;2023-02-25T01:13:47;6.60;72.30
76293;DHT22;67256;51.154;4.164;2023-02-25T01:16:15;6.60;72.70
76293;DHT22;67256;51.154;4.164;2023-02-25T01:18:41;6.70;72.50
76293;DHT22;67256;51.154;4.164;2023-02-25T01:21:20;6.70;72.10
76293;DHT22;67256;51.154;4.164;2023-02-25T01:24:01;6.70;72.10
76293;DHT22;67256;51.154;4.164;2023-02-25T01:26:28;6.90;71.90
76293;DHT22;67256;51.154;4.164;2023-02-25T01:28:54;6.90;71.30
76293;DHT22;67256;51.154;4.164;2023-02-25T01:31:21;6.90;71.30
76293;DHT22;67256;51.154;4.164;2023-02-25T01:33:57;7.00;71.00
76293;DHT22;67256;51.154;4.164;2023-02-25T01:36:25;7.10;70.90
76293;DHT22;67256;51.154;4.164;2023-02-25T01:38:51;7.10;70.60
76293;DHT22;67256;51.154;4.164;2023-02-25T01:41:17;7.20;70.50
76293;DHT22;67256;51.154;4.164;2023-02-25T01:44:04;7.20;70.20
76293;DHT22;67256;51.154;4.164;2023-02-25T01:46:30;7.10;70.30
76293;DHT22;67256;51.154;4.164;2023-02-25T01:48:57;6.90;71.40
76293;DHT22;67256;51.154;4.164;2023-02-25T01:51:25;6.60;73.20
76293;DHT22;67256;51.154;4.164;2023-02-25T01:53:54;6.60;73.40
76293;DHT22;67256;51.154;4.164;2023-02-25T01:56:24;6.60;74.00
76293;DHT22;67256;51.154;4.164;2023-02-25T01:58:51;6.50;73.60
76293;DHT22;67256;51.154;4.164;2023-02-25T02:01:20;6.50;73.80
76293;DHT22;67256;51.154;4.164;2023-02-25T02:03:47;6.40;74.20
76293;DHT22;67256;51.154;4.164;2023-02-25T02:06:18;6.30;74.10
76293;DHT22;67256;51.154;4.164;2023-02-25T02:08:47;6.40;74.00
76293;DHT22;67256;51.154;4.164;2023-02-25T02:11:14;6.50;73.50
76293;DHT22;67256;51.154;4.164;2023-02-25T02:13:44;6.70;73.00
76293;DHT22;67256;51.154;4.164;2023-02-25T02:16:13;6.90;72.30
76293;DHT22;67256;51.154;4.164;2023-02-25T02:18:48;6.90;71.90
76293;DHT22;67256;51.154;4.164;2023-02-25T02:21:34;6.80;72.40
76293;DHT22;67256;51.154;4.164;2023-02-25T02:40:24;6.70;72.50
76293;DHT22;67256;51.154;4.164;2023-02-25T02:45:46;6.80;71.80
76293;DHT22;67256;51.154;4.164;2023-02-25T02:48:17;6.70;72.00
76293;DHT22;67256;51.154;4.164;2023-02-25T02:50:56;6.60;72.10
76293;DHT22;67256;51.154;4.164;2023-02-25T02:53:37;6.60;72.10
76293;DHT22;67256;51.154;4.164;2023-02-25T02:56:07;6.50;72.60
76293;DHT22;67256;51.154;4.164;2023-02-25T02:58:35;6.60;72.20
76293;DHT22;67256;51.154;4.164;2023-02-25T03:01:13;6.60;71.80
76293;DHT22;67256;51.154;4.164;2023-02-25T03:03:45;6.70;71.10
76293;DHT22;67256;51.154;4.164;2023-02-25T03:06:22;6.90;70.90
76293;DHT22;67256;51.154;4.164;2023-02-25T03:08:56;7.00;70.30
76293;DHT22;67256;51.154;4.164;2023-02-25T03:11:23;7.00;70.10
76293;DHT22;67256;51.154;4.164;2023-02-25T03:13:50;6.90;70.00
76293;DHT22;67256;51.154;4.164;2023-02-25T03:16:25;6.50;71.50
76293;DHT22;67256;51.154;4.164;2023-02-25T03:19:22;6.40;71.90
76293;DHT22;67256;51.154;4.164;2023-02-25T03:22:01;6.60;71.40
76293;DHT22;67256;51.154;4.164;2023-02-25T03:24:33;6.50;71.90
76293;DHT22;67256;51.154;4.164;2023-02-25T03:27:14;6.40;72.20
76293;DHT22;67256;51.154;4.164;2023-02-25T03:29:44;6.20;73.20
76293;DHT22;67256;51.154;4.164;2023-02-25T03:32:11;6.20;73.70
76293;DHT22;67256;51.154;4.164;2023-02-25T03:34:44;6.30;74.10
76293;DHT22;67256;51.154;4.164;2023-02-25T03:37:19;6.30;73.90
76293;DHT22;67256;51.154;4.164;2023-02-25T03:39:49;6.30;73.90
76293;DHT22;67256;51.154;4.164;2023-02-25T03:42:19;6.30;73.90
76293;DHT22;67256;51.154;4.164;2023-02-25T03:44:50;6.40;73.90
76293;DHT22;67256;51.154;4.164;2023-02-25T03:47:17;6.60;72.90
76293;DHT22;67256;51.154;4.164;2023-02-25T03:50:05;6.80;71.90
76293;DHT22;67256;51.154;4.164;2023-02-25T03:52:33;6.60;72.20
76293;DHT22;67256;51.154;4.164;2023-02-25T03:55:00;6.60;72.20
76293;DHT22;67256;51.154;4.164;2023-02-25T03:57:36;6.60;72.30
76293;DHT22;67256;51.154;4.164;2023-02-25T04:00:11;6.60;72.20
76293;DHT22;67256;51.154;4.164;2023-02-25T04:02:43;6.80;71.30
76293;DHT22;67256;51.154;4.164;2023-02-25T04:05:11;7.00;70.50
76293;DHT22;67256;51.154;4.164;2023-02-25T04:07:38;7.00;69.80
76293;DHT22;67256;51.154;4.164;2023-02-25T04:10:06;6.90;69.90
76293;DHT22;67256;51.154;4.164;2023-02-25T04:12:33;6.70;70.30
76293;DHT22;67256;51.154;4.164;2023-02-25T04:14:59;6.50;70.00
76293;DHT22;67256;51.154;4.164;2023-02-25T04:17:26;6.40;70.90
76293;DHT22;67256;51.154;4.164;2023-02-25T04:19:52;6.50;69.80
76293;DHT22;67256;51.154;4.164;2023-02-25T04:22:18;6.60;68.40
76293;DHT22;67256;51.154;4.164;2023-02-25T04:24:44;6.60;68.50
76293;DHT22;67256;51.154;4.164;2023-02-25T04:27:09;6.50;68.40
76293;DHT22;67256;51.154;4.164;2023-02-25T04:29:35;6.40;69.40
76293;DHT22;67256;51.154;4.164;2023-02-25T04:32:01;6.50;69.10
76293;DHT22;67256;51.154;4.164;2023-02-25T04:34:27;6.70;68.50
76293;DHT22;67256;51.154;4.164;2023-02-25T04:36:54;6.80;67.50
76293;DHT22;67256;51.154;4.164;2023-02-25T04:39:20;6.60;67.70
76293;DHT22;67256;51.154;4.164;2023-02-25T04:41:46;6.60;68.00
76293;DHT22;67256;51.154;4.164;2023-02-25T04:44:13;6.60;67.90
76293;DHT22;67256;51.154;4.164;2023-02-25T04:46:41;6.50;67.90
76293;DHT22;67256;51.154;4.164;2023-02-25T04:49:08;6.70;67.80
76293;DHT22;67256;51.154;4.164;2023-02-25T04:51:36;6.70;67.40
76293;DHT22;67256;51.154;4.164;2023-02-25T04:54:02;6.50;68.00
76293;DHT22;67256;51.154;4.164;2023-02-25T04:56:29;6.40;68.70
76293;DHT22;67256;51.154;4.164;2023-02-25T04:58:56;6.50;69.00
76293;DHT22;67256;51.154;4.164;2023-02-25T05:01:22;6.70;67.70
76293;DHT22;67256;51.154;4.164;2023-02-25T05:03:48;6.90;66.80
76293;DHT22;67256;51.154;4.164;2023-02-25T05:06:14;7.00;66.80
76293;DHT22;67256;51.154;4.164;2023-02-25T05:08:40;7.00;66.40
76293;DHT22;67256;51.154;4.164;2023-02-25T05:11:06;7.00;66.30
76293;DHT22;67256;51.154;4.164;2023-02-25T05:13:31;7.10;66.10
76293;DHT22;67256;51.154;4.164;2023-02-25T05:16:09;7.20;65.90
76293;DHT22;67256;51.154;4.164;2023-02-25T05:18:39;7.30;65.60
76293;DHT22;67256;51.154;4.164;2023-02-25T05:21:18;7.30;65.40
76293;DHT22;67256;51.154;4.164;2023-02-25T05:23:46;7.20;65.70
76293;DHT22;67256;51.154;4.164;2023-02-25T05:26:13;7.10;65.90
76293;DHT22;67256;51.154;4.164;2023-02-25T05:28:39;7.10;66.30
76293;DHT22;67256;51.154;4.164;2023-02-25T05:31:06;6.90;66.80
76293;DHT22;67256;51.154;4.164;2023-02-25T05:33:34;6.60;67.90
76293;DHT22;67256;51.154;4.164;2023-02-25T05:35:59;6.60;68.60
76293;DHT22;67256;51.154;4.164;2023-02-25T05:38:26;6.40;69.20
76293;DHT22;67256;51.154;4.164;2023-02-25T05:40:53;6.30;70.00
76293;DHT22;67256;51.154;4.164;2023-02-25T05:43:19;6.20;70.70
76293;DHT22;67256;51.154;4.164;2023-02-25T05:45:55;6.20;70.70
76293;DHT22;67256;51.154;4.164;2023-02-25T05:48:22;6.10;71.30
76293;DHT22;67256;51.154;4.164;2023-02-25T05:50:48;6.20;71.20
76293;DHT22;67256;51.154;4.164;2023-02-25T05:53:18;6.30;70.60
76293;DHT22;67256;51.154;4.164;2023-02-25T05:55:44;6.30;71.20
76293;DHT22;67256;51.154;4.164;2023-02-25T05:58:11;6.30;71.50
76293;DHT22;67256;51.154;4.164;2023-02-25T06:00:37;6.30;71.30
76293;DHT22;67256;51.154;4.164;2023-02-25T06:03:04;6.40;71.10
76293;DHT22;67256;51.154;4.164;2023-02-25T06:05:30;6.40;72.00
76293;DHT22;67256;51.154;4.164;2023-02-25T06:07:57;6.20;72.60
76293;DHT22;67256;51.154;4.164;2023-02-25T06:10:24;6.10;73.50
76293;DHT22;67256;51.154;4.164;2023-02-25T06:12:50;6.00;74.10
76293;DHT22;67256;51.154;4.164;2023-02-25T06:15:16;6.20;73.70
76293;DHT22;67256;51.154;4.164;2023-02-25T06:17:42;6.30;73.30
76293;DHT22;67256;51.154;4.164;2023-02-25T06:20:08;6.40;72.70
76293;DHT22;67256;51.154;4.164;2023-02-25T06:22:35;6.60;72.40
76293;DHT22;67256;51.154;4.164;2023-02-25T06:25:01;6.60;72.00
76293;DHT22;67256;51.154;4.164;2023-02-25T06:27:27;6.70;71.70
76293;DHT22;67256;51.154;4.164;2023-02-25T06:29:54;6.70;71.70
76293;DHT22;67256;51.154;4.164;2023-02-25T06:32:20;6.80;71.70
76293;DHT22;67256;51.154;4.164;2023-02-25T06:34:46;6.90;70.90
76293;DHT22;67256;51.154;4.164;2023-02-25T06:37:12;7.00;70.80
76293;DHT22;67256;51.154;4.164;2023-02-25T06:39:37;7.10;70.40
76293;DHT22;67256;51.154;4.164;2023-02-25T06:42:08;7.20;70.20
76293;DHT22;67256;51.154;4.164;2023-02-25T06:44:34;7.30;70.10
76293;DHT22;67256;51.154;4.164;2023-02-25T06:47:00;7.20;70.10
76293;DHT22;67256;51.154;4.164;2023-02-25T06:49:26;6.80;71.70
76293;DHT22;67256;51.154;4.164;2023-02-25T06:51:52;6.30;74.70
76293;DHT22;67256;51.154;4.164;2023-02-25T06:54:18;6.30;74.80
76293;DHT22;67256;51.154;4.164;2023-02-25T06:56:44;6.20;75.20
76293;DHT22;67256;51.154;4.164;2023-02-25T06:59:10;6.20;75.50
76293;DHT22;67256;51.154;4.164;2023-02-25T07:01:36;6.20;75.50
76293;DHT22;67256;51.154;4.164;2023-02-25T07:04:03;6.40;74.70
76293;DHT22;67256;51.154;4.164;2023-02-25T07:06:29;6.60;73.70
76293;DHT22;67256;51.154;4.164;2023-02-25T07:08:55;6.50;73.60
76293;DHT22;67256;51.154;4.164;2023-02-25T07:11:28;6.40;73.90
76293;DHT22;67256;51.154;4.164;2023-02-25T07:13:54;6.40;73.80
76293;DHT22;67256;51.154;4.164;2023-02-25T07:16:20;6.20;74.70
76293;DHT22;67256;51.154;4.164;2023-02-25T07:18:46;6.20;74.50
76293;DHT22;67256;51.154;4.164;2023-02-25T07:21:12;6.20;74.20
76293;DHT22;67256;51.154;4.164;2023-02-25T07:23:38;6.20;74.50
76293;DHT22;67256;51.154;4.164;2023-02-25T07:26:06;6.10;74.30
76293;DHT22;67256;51.154;4.164;2023-02-25T07:28:32;6.00;74.90
76293;DHT22;67256;51.154;4.164;2023-02-25T07:31:12;6.10;74.10
76293;DHT22;67256;51.154;4.164;2023-02-25T07:33:38;6.00;74.40
76293;DHT22;67256;51.154;4.164;2023-02-25T07:36:05;6.00;74.80
76293;DHT22;67256;51.154;4.164;2023-02-25T07:38:32;6.10;74.50
76293;DHT22;67256;51.154;4.164;2023-02-25T07:41:07;6.30;73.70
76293;DHT22;67256;51.154;4.164;2023-02-25T07:43:33;6.30;73.60
76293;DHT22;67256;51.154;4.164;2023-02-25T07:45:59;6.40;73.30
76293;DHT22;67256;51.154;4.164;2023-02-25T07:48:26;6.20;73.70
76293;DHT22;67256;51.154;4.164;2023-02-25T07:50:51;6.20;74.00
76293;DHT22;67256;51.154;4.164;2023-02-25T07:53:17;6.30;73.40
76293;DHT22;67256;51.154;4.164;2023-02-25T07:55:45;6.40;73.30
76293;DHT22;67256;51.154;4.164;2023-02-25T07:58:11;6.50;72.50
76293;DHT22;67256;51.154;4.164;2023-02-25T08:00:38;6.50;72.50
76293;DHT22;67256;51.154;4.164;2023-02-25T08:03:06;6.40;72.60
76293;DHT22;67256;51.154;4.164;2023-02-25T08:05:36;6.30;72.90
76293;DHT22;67256;51.154;4.164;2023-02-25T08:08:03;6.30;73.20
76293;DHT22;67256;51.154;4.164;2023-02-25T08:10:29;6.30;73.40
76293;DHT22;67256;51.154;4.164;2023-02-25T08:12:56;6.40;73.20
76293;DHT22;67256;51.154;4.164;2023-02-25T08:15:21;6.50;72.70
76293;DHT22;67256;51.154;4.164;2023-02-25T08:17:48;6.60;72.00
76293;DHT22;67256;51.154;4.164;2023-02-25T08:20:16;6.50;71.20
76293;DHT22;67256;51.154;4.164;2023-02-25T08:22:42;6.60;71.70
76293;DHT22;67256;51.154;4.164;2023-02-25T08:25:09;6.70;71.50
76293;DHT22;67256;51.154;4.164;2023-02-25T08:27:35;6.80;69.80
76293;DHT22;67256;51.154;4.164;2023-02-25T08:30:01;6.80;69.30
76293;DHT22;67256;51.154;4.164;2023-02-25T08:32:27;6.70;69.70
76293;DHT22;67256;51.154;4.164;2023-02-25T08:34:53;6.70;69.90
76293;DHT22;67256;51.154;4.164;2023-02-25T08:37:21;6.60;70.60
76293;DHT22;67256;51.154;4.164;2023-02-25T08:39:52;6.60;70.60
76293;DHT22;67256;51.154;4.164;2023-02-25T08:42:18;6.60;71.00
76293;DHT22;67256;51.154;4.164;2023-02-25T08:44:44;6.60;71.10
76293;DHT22;67256;51.154;4.164;2023-02-25T08:47:10;6.50;71.90
76293;DHT22;67256;51.154;4.164;2023-02-25T08:49:36;6.50;72.60
76293;DHT22;67256;51.154;4.164;2023-02-25T08:52:01;6.00;76.30
76293;DHT22;67256;51.154;4.164;2023-02-25T08:54:27;5.80;78.40
76293;DHT22;67256;51.154;4.164;2023-02-25T08:56:54;5.70;77.70
76293;DHT22;67256;51.154;4.164;2023-02-25T08:59:21;5.70;78.30
76293;DHT22;67256;51.154;4.164;2023-02-25T09:01:47;5.80;78.00
76293;DHT22;67256;51.154;4.164;2023-02-25T09:04:19;5.90;76.90
76293;DHT22;67256;51.154;4.164;2023-02-25T09:06:48;6.20;76.30
76293;DHT22;67256;51.154;4.164;2023-02-25T09:09:16;6.20;76.00
76293;DHT22;67256;51.154;4.164;2023-02-25T09:11:42;6.40;75.70
76293;DHT22;67256;51.154;4.164;2023-02-25T09:14:08;6.60;75.30
76293;DHT22;67256;51.154;4.164;2023-02-25T09:16:35;6.80;75.80
76293;DHT22;67256;51.154;4.164;2023-02-25T09:19:00;6.90;74.80
76293;DHT22;67256;51.154;4.164;2023-02-25T09:21:27;7.00;74.10
76293;DHT22;67256;51.154;4.164;2023-02-25T09:23:53;7.00;73.60
76293;DHT22;67256;51.154;4.164;2023-02-25T09:26:20;7.00;73.70
76293;DHT22;67256;51.154;4.164;2023-02-25T09:28:46;7.20;73.00
76293;DHT22;67256;51.154;4.164;2023-02-25T09:31:13;7.00;74.00
76293;DHT22;67256;51.154;4.164;2023-02-25T09:33:40;7.00;74.00
76293;DHT22;67256;51.154;4.164;2023-02-25T09:36:17;7.00;74.80
76293;DHT22;67256;51.154;4.164;2023-02-25T09:38:45;6.90;73.50
76293;DHT22;67256;51.154;4.164;2023-02-25T09:44:24;6.80;74.60
76293;DHT22;67256;51.154;4.164;2023-02-25T09:49:30;6.60;74.80
76293;DHT22;67256;51.154;4.164;2023-02-25T09:52:24;6.40;73.70
76293;DHT22;67256;51.154;4.164;2023-02-25T09:54:57;6.50;74.30
76293;DHT22;67256;51.154;4.164;2023-02-25T09:57:28;6.60;73.70
76293;DHT22;67256;51.154;4.164;2023-02-25T09:59:56;6.60;73.50
76293;DHT22;67256;51.154;4.164;2023-02-25T10:02:39;6.60;74.10
76293;DHT22;67256;51.154;4.164;2023-02-25T10:05:27;6.60;73.40
76293;DHT22;67256;51.154;4.164;2023-02-25T10:11:05;6.60;74.10
76293;DHT22;67256;51.154;4.164;2023-02-25T10:13:53;6.30;74.20
76293;DHT22;67256;51.154;4.164;2023-02-25T10:22:18;6.30;72.70
76293;DHT22;67256;51.154;4.164;2023-02-25T10:25:02;6.30;72.40
76293;DHT22;67256;51.154;4.164;2023-02-25T10:27:37;6.30;72.30
76293;DHT22;67256;51.154;4.164;2023-02-25T10:30:23;6.30;73.00
76293;DHT22;67256;51.154;4.164;2023-02-25T10:32:49;6.40;73.40
76293;DHT22;67256;51.154;4.164;2023-02-25T10:35:25;6.50;73.10
76293;DHT22;67256;51.154;4.164;2023-02-25T10:37:51;6.50;73.60
76293;DHT22;67256;51.154;4.164;2023-02-25T10:40:23;6.50;74.40
76293;DHT22;67256;51.154;4.164;2023-02-25T10:42:51;6.60;74.70
76293;DHT22;67256;51.154;4.164;2023-02-25T10:45:30;6.50;74.40
76293;DHT22;67256;51.154;4.164;2023-02-25T10:48:12;6.60;75.30
76293;DHT22;67256;51.154;4.164;2023-02-25T10:50:41;6.60;75.40
76293;DHT22;67256;51.154;4.164;2023-02-25T10:53:15;6.70;74.30
76293;DHT22;67256;51.154;4.164;2023-02-25T10:55:48;6.80;74.40
76293;DHT22;67256;51.154;4.164;2023-02-25T10:58:38;6.80;71.90
76293;DHT22;67256;51.154;4.164;2023-02-25T11:01:21;6.90;71.80
76293;DHT22;67256;51.154;4.164;2023-02-25T11:03:56;7.00;71.40
76293;DHT22;67256;51.154;4.164;2023-02-25T11:06:25;7.10;68.30
76293;DHT22;67256;51.154;4.164;2023-02-25T11:08:52;7.20;68.70
76293;DHT22;67256;51.154;4.164;2023-02-25T11:11:20;7.30;67.10
76293;DHT22;67256;51.154;4.164;2023-02-25T11:16:24;7.10;65.80
76293;DHT22;67256;51.154;4.164;2023-02-25T11:18:59;7.20;65.70
76293;DHT22;67256;51.154;4.164;2023-02-25T11:21:36;7.20;64.30
76293;DHT22;67256;51.154;4.164;2023-02-25T11:26:42;7.30;64.30
76293;DHT22;67256;51.154;4.164;2023-02-25T11:29:23;7.10;63.20
76293;DHT22;67256;51.154;4.164;2023-02-25T11:32:17;7.00;64.60
76293;DHT22;67256;51.154;4.164;2023-02-25T11:35:02;7.00;64.00
76293;DHT22;67256;51.154;4.164;2023-02-25T11:37:40;6.90;63.80
76293;DHT22;67256;51.154;4.164;2023-02-25T11:40:23;6.80;65.30
76293;DHT22;67256;51.154;4.164;2023-02-25T11:48:24;6.80;67.60
76293;DHT22;67256;51.154;4.164;2023-02-25T11:56:54;6.80;66.20
76293;DHT22;67256;51.154;4.164;2023-02-25T12:15:48;6.90;60.20
76293;DHT22;67256;51.154;4.164;2023-02-25T12:26:51;7.20;59.40
76293;DHT22;67256;51.154;4.164;2023-02-25T12:29:52;7.30;59.70
76293;DHT22;67256;51.154;4.164;2023-02-25T12:32:37;7.30;59.40
76293;DHT22;67256;51.154;4.164;2023-02-25T12:40:58;7.30;61.00
76293;DHT22;67256;51.154;4.164;2023-02-25T13:08:46;6.90;77.40
76293;DHT22;67256;51.154;4.164;2023-02-25T13:16:45;6.10;79.50
76293;DHT22;67256;51.154;4.164;2023-02-25T13:24:55;6.40;81.20
76293;DHT22;67256;51.154;4.164;2023-02-25T13:30:22;6.60;78.10
76293;DHT22;67256;51.154;4.164;2023-02-25T13:36:07;6.90;77.30
76293;DHT22;67256;51.154;4.164;2023-02-25T13:41:40;7.10;75.90
76293;DHT22;67256;51.154;4.164;2023-02-25T14:09:54;7.40;72.20
76293;DHT22;67256;51.154;4.164;2023-02-25T14:12:50;6.90;75.10
76293;DHT22;67256;51.154;4.164;2023-02-25T14:20:55;6.60;76.30
76293;DHT22;67256;51.154;4.164;2023-02-25T14:26:22;6.70;75.30
76293;DHT22;67256;51.154;4.164;2023-02-25T14:29:02;6.60;71.20
76293;DHT22;67256;51.154;4.164;2023-02-25T14:37:01;6.60;69.20
76293;DHT22;67256;51.154;4.164;2023-02-25T14:48:18;6.80;65.80
76293;DHT22;67256;51.154;4.164;2023-02-25T14:50:52;6.70;63.50
76293;DHT22;67256;51.154;4.164;2023-02-25T15:07:51;6.80;59.90
76293;DHT22;67256;51.154;4.164;2023-02-25T15:21:44;7.00;58.20
76293;DHT22;67256;51.154;4.164;2023-02-25T15:24:35;7.10;59.10
76293;DHT22;67256;51.154;4.164;2023-02-25T15:27:01;7.10;58.90
76293;DHT22;67256;51.154;4.164;2023-02-25T15:29:56;7.10;58.30
76293;DHT22;67256;51.154;4.164;2023-02-25T15:32:44;7.00;57.80
76293;DHT22;67256;51.154;4.164;2023-02-25T15:35:14;6.90;57.80
76293;DHT22;67256;51.154;4.164;2023-02-25T15:38:50;6.90;58.60
76293;DHT22;67256;51.154;4.164;2023-02-25T15:40:52;6.90;58.60
76293;DHT22;67256;51.154;4.164;2023-02-25T15:48:38;6.90;56.30
76293;DHT22;67256;51.154;4.164;2023-02-25T15:51:09;6.90;55.50
76293;DHT22;67256;51.154;4.164;2023-02-25T15:53:38;6.90;54.60
76293;DHT22;67256;51.154;4.164;2023-02-25T16:01:00;6.70;54.80
76293;DHT22;67256;51.154;4.164;2023-02-25T16:06:37;6.60;54.10
76293;DHT22;67256;51.154;4.164;2023-02-25T16:09:07;6.60;53.20
76293;DHT22;67256;51.154;4.164;2023-02-25T16:11:48;6.50;52.60
76293;DHT22;67256;51.154;4.164;2023-02-25T16:14:19;6.50;51.30
76293;DHT22;67256;51.154;4.164;2023-02-25T16:16:59;6.50;51.10
76293;DHT22;67256;51.154;4.164;2023-02-25T16:19:30;6.50;51.40
76293;DHT22;67256;51.154;4.164;2023-02-25T16:22:04;6.50;52.50
76293;DHT22;67256;51.154;4.164;2023-02-25T16:24:34;6.60;52.40
76293;DHT22;67256;51.154;4.164;2023-02-25T16:35:52;6.70;54.10
76293;DHT22;67256;51.154;4.164;2023-02-25T16:38:15;6.70;54.30
76293;DHT22;67256;51.154;4.164;2023-02-25T16:40:43;6.70;53.40
76293;DHT22;67256;51.154;4.164;2023-02-25T16:43:23;6.60;52.30
76293;DHT22;67256;51.154;4.164;2023-02-25T16:46:00;6.60;51.80
76293;DHT22;67256;51.154;4.164;2023-02-25T16:48:33;6.60;51.70
76293;DHT22;67256;51.154;4.164;2023-02-25T16:51:10;6.60;52.10
76293;DHT22;67256;51.154;4.164;2023-02-25T16:53:42;6.70;53.20
76293;DHT22;67256;51.154;4.164;2023-02-25T16:56:22;6.80;52.80
76293;DHT22;67256;51.154;4.164;2023-02-25T17:01:27;6.70;52.30
76293;DHT22;67256;51.154;4.164;2023-02-25T17:04:00;6.80;53.10
76293;DHT22;67256;51.154;4.164;2023-02-25T17:06:26;6.80;53.10
76293;DHT22;67256;51.154;4.164;2023-02-25T17:08:53;6.80;53.10
76293;DHT22;67256;51.154;4.164;2023-02-25T17:11:21;6.80;53.00
76293;DHT22;67256;51.154;4.164;2023-02-25T17:13:50;6.70;52.80
76293;DHT22;67256;51.154;4.164;2023-02-25T17:16:22;6.60;53.60
76293;DHT22;67256;51.154;4.164;2023-02-25T17:18:55;6.50;53.40
76293;DHT22;67256;51.154;4.164;2023-02-25T17:21:30;6.50;54.20
76293;DHT22;67256;51.154;4.164;2023-02-25T17:24:02;6.40;53.80
76293;DHT22;67256;51.154;4.164;2023-02-25T17:26:29;6.40;53.90
76293;DHT22;67256;51.154;4.164;2023-02-25T17:28:59;6.50;55.00
76293;DHT22;67256;51.154;4.164;2023-02-25T17:31:27;6.50;54.10
76293;DHT22;67256;51.154;4.164;2023-02-25T17:33:56;6.40;54.30
76293;DHT22;67256;51.154;4.164;2023-02-25T17:36:34;6.50;55.10
76293;DHT22;67256;51.154;4.164;2023-02-25T17:39:13;6.40;54.10
76293;DHT22;67256;51.154;4.164;2023-02-25T17:41:40;6.20;53.70
76293;DHT22;67256;51.154;4.164;2023-02-25T17:44:56;6.20;54.30
76293;DHT22;67256;51.154;4.164;2023-02-25T17:46:57;6.20;53.70
76293;DHT22;67256;51.154;4.164;2023-02-25T17:49:24;6.20;53.50
76293;DHT22;67256;51.154;4.164;2023-02-25T17:51:53;6.20;53.70
76293;DHT22;67256;51.154;4.164;2023-02-25T17:54:22;6.20;54.30
76293;DHT22;67256;51.154;4.164;2023-02-25T17:57:01;6.20;54.00
76293;DHT22;67256;51.154;4.164;2023-02-25T17:59:39;6.10;53.90
76293;DHT22;67256;51.154;4.164;2023-02-25T18:05:18;6.00;53.90
76293;DHT22;67256;51.154;4.164;2023-02-25T18:08:15;5.90;54.50
76293;DHT22;67256;51.154;4.164;2023-02-25T18:10:46;5.90;54.40
76293;DHT22;67256;51.154;4.164;2023-02-25T18:13:22;5.90;53.80
76293;DHT22;67256;51.154;4.164;2023-02-25T18:18:38;5.80;53.20
76293;DHT22;67256;51.154;4.164;2023-02-25T18:21:05;5.80;53.70
76293;DHT22;67256;51.154;4.164;2023-02-25T18:23:33;5.80;54.00
76293;DHT22;67256;51.154;4.164;2023-02-25T18:26:15;5.80;53.70
76293;DHT22;67256;51.154;4.164;2023-02-25T18:28:42;5.70;53.90
76293;DHT22;67256;51.154;4.164;2023-02-25T18:31:09;5.80;54.00
76293;DHT22;67256;51.154;4.164;2023-02-25T18:33:35;5.80;53.40
76293;DHT22;67256;51.154;4.164;2023-02-25T18:36:04;5.70;53.60
76293;DHT22;67256;51.154;4.164;2023-02-25T18:38:31;5.70;53.50
76293;DHT22;67256;51.154;4.164;2023-02-25T18:40:57;5.70;53.20
76293;DHT22;67256;51.154;4.164;2023-02-25T18:43:25;5.80;53.60
76293;DHT22;67256;51.154;4.164;2023-02-25T18:46:00;5.80;53.00
76293;DHT22;67256;51.154;4.164;2023-02-25T18:48:26;5.80;53.10
76293;DHT22;67256;51.154;4.164;2023-02-25T18:50:53;5.80;52.30
76293;DHT22;67256;51.154;4.164;2023-02-25T18:53:22;5.70;51.90
76293;DHT22;67256;51.154;4.164;2023-02-25T18:55:50;5.70;52.70
76293;DHT22;67256;51.154;4.164;2023-02-25T18:58:17;5.80;52.70
76293;DHT22;67256;51.154;4.164;2023-02-25T19:00:47;5.70;52.70
76293;DHT22;67256;51.154;4.164;2023-02-25T19:03:20;5.60;52.80
76293;DHT22;67256;51.154;4.164;2023-02-25T19:05:46;5.60;52.90
76293;DHT22;67256;51.154;4.164;2023-02-25T19:08:14;5.50;53.50
76293;DHT22;67256;51.154;4.164;2023-02-25T19:10:41;5.60;53.60
76293;DHT22;67256;51.154;4.164;2023-02-25T19:15:49;5.80;53.90
76293;DHT22;67256;51.154;4.164;2023-02-25T19:18:15;5.90;53.90
76293;DHT22;67256;51.154;4.164;2023-02-25T19:20:42;5.80;53.60
76293;DHT22;67256;51.154;4.164;2023-02-25T19:23:13;5.80;54.00
76293;DHT22;67256;51.154;4.164;2023-02-25T19:25:41;5.90;53.90
76293;DHT22;67256;51.154;4.164;2023-02-25T19:28:08;5.70;54.20
76293;DHT22;67256;51.154;4.164;2023-02-25T19:30:37;5.60;54.70
76293;DHT22;67256;51.154;4.164;2023-02-25T19:33:05;5.60;54.80
76293;DHT22;67256;51.154;4.164;2023-02-25T19:35:33;5.60;54.60
76293;DHT22;67256;51.154;4.164;2023-02-25T19:38:01;5.60;54.50
76293;DHT22;67256;51.154;4.164;2023-02-25T19:40:27;5.60;54.90
76293;DHT22;67256;51.154;4.164;2023-02-25T19:42:54;5.50;55.40
76293;DHT22;67256;51.154;4.164;2023-02-25T19:45:21;5.50;55.20
76293;DHT22;67256;51.154;4.164;2023-02-25T19:47:48;5.50;55.10
76293;DHT22;67256;51.154;4.164;2023-02-25T19:50:16;5.60;55.20
76293;DHT22;67256;51.154;4.164;2023-02-25T19:52:42;5.60;54.80
76293;DHT22;67256;51.154;4.164;2023-02-25T19:55:09;5.40;55.30
76293;DHT22;67256;51.154;4.164;2023-02-25T19:57:39;5.40;55.10